Portola, California
Current Conditions -  °F | °C
As of 12:15 PM on Thursday 23 Oct 2014 (Local Time) from KRTS Reporting Station
Clear Clear  
Wind Chill: 19°   Ceiling: Unl
Heat Index: 19°   Visibility: 10mi
Dew Point: -3°   Wind: 17mph
Humidity: 23%   Direction: 260°W
Pressure: 30.1"   Gusts: 29mph
Location:  39.81°N, 120.47°W
Report Text: KRTS 231915Z AUTO 26015G25KT 10SM CLR 19/M03 A3010 RMK AO2
Loading
Personal Weather Stations






























Interactive Weather Map New forecast layout! Learn more

10-Day Weather Forecast

Advertisements
Track Severe Weather on mobile